createdAt,value
2023-05-15T00:01:32.842Z,100234.63
2023-05-15T00:04:01.558Z,100231.00
2023-05-15T00:06:30.561Z,100226.78
2023-05-15T00:08:59.141Z,100219.75
2023-05-15T00:11:28.212Z,100216.97
2023-05-15T00:13:56.731Z,100214.31
2023-05-15T00:16:25.822Z,100204.66
2023-05-15T00:18:54.374Z,100210.94
2023-05-15T00:21:23.230Z,100199.34
2023-05-15T00:23:54.469Z,100199.34
2023-05-15T00:26:23.651Z,100195.81
2023-05-15T00:28:52.399Z,100194.16
2023-05-15T00:31:21.468Z,100190.50
2023-05-15T00:33:49.981Z,100183.50
2023-05-15T00:36:21.808Z,100189.66
2023-05-15T00:38:54.277Z,100187.00
2023-05-15T00:41:23.886Z,100182.81
2023-05-15T00:43:52.856Z,100187.00
2023-05-15T00:46:22.290Z,100186.44
2023-05-15T00:48:51.236Z,100197.78
2023-05-15T00:51:20.157Z,100199.59
2023-05-15T00:53:48.770Z,100195.97
2023-05-15T00:56:17.677Z,100184.47
2023-05-15T00:58:50.188Z,100185.34
2023-05-15T01:01:20.993Z,100184.47
2023-05-15T01:03:49.560Z,100181.13
2023-05-15T01:06:18.459Z,100173.28
2023-05-15T01:08:47.448Z,100176.63
2023-05-15T01:11:17.611Z,100180.16
2023-05-15T01:13:47.846Z,100169.66
2023-05-15T01:16:16.842Z,100176.63
2023-05-15T01:18:45.331Z,100174.97
2023-05-15T01:21:34.472Z,100176.63
2023-05-15T01:24:46.586Z,100168.38
2023-05-15T01:27:39.958Z,100178.59
2023-05-15T01:30:39.258Z,100172.44
2023-05-15T01:33:32.945Z,100169.66
2023-05-15T01:36:43.399Z,100182.94
2023-05-15T01:39:12.393Z,100176.94
2023-05-15T01:41:59.755Z,100175.94
2023-05-15T01:44:55.518Z,100175.25
2023-05-15T01:47:34.123Z,100160.97
2023-05-15T01:50:03.837Z,100164.59
2023-05-15T01:52:38.929Z,100171.59
2023-05-15T01:55:08.750Z,100168.13
2023-05-15T01:57:37.286Z,100168.25
2023-05-15T02:00:07.198Z,100169.91
2023-05-15T02:02:43.156Z,100169.91
2023-05-15T02:05:13.475Z,100168.25
2023-05-15T02:07:44.994Z,100163.06
2023-05-15T02:10:14.007Z,100164.91
2023-05-15T02:12:47.612Z,100171.06
2023-05-15T02:15:16.386Z,100171.88
2023-05-15T02:17:44.851Z,100167.56
2023-05-15T02:20:14.573Z,100167.69
2023-05-15T02:22:43.105Z,100160.69
2023-05-15T02:25:11.864Z,100166.56
2023-05-15T02:27:48.950Z,100147.25
2023-05-15T02:30:46.520Z,100167.69
2023-05-15T02:33:36.281Z,100149.78
2023-05-15T02:36:10.113Z,100148.66
2023-05-15T02:38:53.704Z,100156.22
2023-05-15T02:41:22.830Z,100157.88
2023-05-15T02:43:52.538Z,100155.34
2023-05-15T02:46:21.665Z,100149.22
2023-05-15T02:48:50.526Z,100154.53
2023-05-15T02:51:19.307Z,100151.19
2023-05-15T02:53:47.846Z,100153.69
2023-05-15T02:56:16.724Z,100156.50
2023-05-15T02:58:45.241Z,100153.13
2023-05-15T03:01:14.211Z,100148.66
2023-05-15T03:03:42.680Z,100150.34
2023-05-15T03:06:11.738Z,100146.69
2023-05-15T03:08:40.206Z,100145.84
2023-05-15T03:11:08.962Z,100145.84
2023-05-15T03:13:37.530Z,100150.34
2023-05-15T03:16:06.650Z,100144.19
2023-05-15T03:18:35.240Z,100145.16
2023-05-15T03:21:04.320Z,100139.16
2023-05-15T03:23:34.022Z,100145.16
2023-05-15T03:26:04.673Z,100134.97
2023-05-15T03:28:33.322Z,100141.94
2023-05-15T03:31:02.315Z,100148.13
2023-05-15T03:33:32.562Z,100149.78
2023-05-15T03:36:01.384Z,100149.78
2023-05-15T03:38:29.833Z,100148.13
2023-05-15T03:40:58.770Z,100159.72
2023-05-15T03:43:27.448Z,100149.22
2023-05-15T03:45:56.451Z,100149.09
2023-05-15T03:48:25.545Z,100143.34
2023-05-15T03:50:54.440Z,100144.03
2023-05-15T03:53:23.144Z,100150.06
2023-05-15T03:55:54.839Z,100147.56
2023-05-15T03:58:23.360Z,100160.88
2023-05-15T04:00:52.233Z,100154.69
2023-05-15T04:03:20.975Z,100164.34
2023-05-15T04:05:50.361Z,100146.69
2023-05-15T04:08:19.056Z,100154.69
2023-05-15T04:10:48.206Z,100145.88
2023-05-15T04:13:16.842Z,100147.56
2023-05-15T04:15:45.953Z,100147.56
2023-05-15T04:18:14.528Z,100145.03
2023-05-15T04:20:43.467Z,100147.56
2023-05-15T04:23:12.073Z,100145.03
2023-05-15T04:25:46.466Z,100149.53
2023-05-15T04:28:15.286Z,100153.00
2023-05-15T04:30:44.259Z,100149.34
2023-05-15T04:33:12.972Z,100170.63
2023-05-15T04:35:41.927Z,100169.66
2023-05-15T04:38:10.573Z,100175.97
2023-05-15T04:40:39.454Z,100170.63
2023-05-15T04:43:08.561Z,100178.63
2023-05-15T04:45:37.474Z,100181.28
2023-05-15T04:48:06.892Z,100176.81
2023-05-15T04:50:37.311Z,100180.31
2023-05-15T04:53:06.030Z,100174.00
2023-05-15T04:55:34.945Z,100177.38
2023-05-15T04:58:03.682Z,100171.06
2023-05-15T05:00:32.862Z,100175.41
2023-05-15T05:03:01.566Z,100172.88
2023-05-15T05:05:30.601Z,100164.91
2023-05-15T05:07:59.186Z,100169.41
2023-05-15T05:10:28.128Z,100173.72
2023-05-15T05:12:56.727Z,100181.72
2023-05-15T05:15:25.972Z,100181.00
2023-05-15T05:17:54.887Z,100176.53
2023-05-15T05:20:23.941Z,100179.03
2023-05-15T05:22:52.715Z,100185.38
2023-05-15T05:25:21.804Z,100178.34
2023-05-15T05:27:50.540Z,100183.53
2023-05-15T05:30:19.656Z,100182.53
2023-05-15T05:32:48.379Z,100183.41
2023-05-15T05:35:17.617Z,100180.75
2023-05-15T05:37:46.394Z,100184.78
2023-05-15T05:40:15.796Z,100182.41
2023-05-15T05:42:44.360Z,100188.72
2023-05-15T05:45:13.326Z,100184.22
2023-05-15T05:47:41.976Z,100187.56
2023-05-15T05:50:11.271Z,100181.25
2023-05-15T05:52:39.913Z,100167.94
2023-05-15T05:55:09.747Z,100172.31
2023-05-15T05:57:38.284Z,100163.75
2023-05-15T06:00:11.126Z,100175.66
2023-05-15T06:02:40.500Z,100171.88
2023-05-15T06:05:10.040Z,100168.22
2023-05-15T06:07:38.653Z,100167.41
2023-05-15T06:10:10.025Z,100166.00
2023-05-15T06:12:38.958Z,100167.28
2023-05-15T06:15:08.547Z,100167.75
2023-05-15T06:17:37.722Z,100163.69
2023-05-15T06:20:08.860Z,100160.72
2023-05-15T06:22:37.847Z,100170.09
2023-05-15T06:25:07.518Z,100171.22
2023-05-15T06:27:36.312Z,100163.41
2023-05-15T06:30:06.420Z,100175.22
2023-05-15T06:32:35.625Z,100168.06
2023-05-15T06:35:04.977Z,100169.75
2023-05-15T06:37:33.740Z,100163.59
2023-05-15T06:40:03.350Z,100160.16
2023-05-15T06:42:32.261Z,100161.06
2023-05-15T06:45:01.904Z,100157.97
2023-05-15T06:47:30.946Z,100152.16
2023-05-15T06:50:00.062Z,100152.25
2023-05-15T06:52:28.878Z,100152.75
2023-05-15T06:54:58.169Z,100152.75
2023-05-15T06:57:27.142Z,100149.53
2023-05-15T06:59:56.262Z,100153.59
2023-05-15T07:02:25.096Z,100150.94
2023-05-15T07:04:54.378Z,100155.41
2023-05-15T07:07:23.164Z,100163.53
2023-05-15T07:09:52.275Z,100164.22
2023-05-15T07:12:21.040Z,100158.78
2023-05-15T07:14:50.131Z,100161.56
2023-05-15T07:17:19.575Z,100153.59
2023-05-15T07:19:48.712Z,100148.97
2023-05-15T07:22:17.538Z,100140.84
2023-05-15T07:24:46.848Z,100148.41
2023-05-15T07:27:15.613Z,100146.16
2023-05-15T07:29:44.945Z,100146.00
2023-05-15T07:32:13.771Z,100143.78
2023-05-15T07:34:43.047Z,100140.97
2023-05-15T07:37:11.851Z,100147.97
2023-05-15T07:39:40.997Z,100144.59
2023-05-15T07:42:09.832Z,100146.44
2023-05-15T07:44:39.018Z,100152.72
2023-05-15T07:47:07.838Z,100158.75
2023-05-15T07:49:36.965Z,100165.75
2023-05-15T07:52:05.988Z,100157.63
2023-05-15T07:54:35.111Z,100154.97
2023-05-15T07:57:04.251Z,100153.00
2023-05-15T07:59:33.506Z,100148.41
2023-05-15T08:02:02.616Z,100154.56
2023-05-15T08:04:31.827Z,100148.41
2023-05-15T08:07:00.655Z,100145.19
2023-05-15T08:09:30.049Z,100145.59
2023-05-15T08:12:14.530Z,100133.97
2023-05-15T08:14:43.760Z,100141.81
2023-05-15T08:17:12.681Z,100145.03
2023-05-15T08:19:41.808Z,100145.59
2023-05-15T08:22:10.678Z,100151.31
2023-05-15T08:24:40.153Z,100133.97
2023-05-15T08:27:09.068Z,100122.25
2023-05-15T08:29:39.492Z,100127.38
2023-05-15T08:32:09.375Z,100129.63
2023-05-15T08:34:38.989Z,100121.53
2023-05-15T08:37:07.682Z,100123.44
2023-05-15T08:39:36.569Z,100117.16
2023-05-15T08:42:34.246Z,100115.91
2023-05-15T08:45:03.932Z,100101.22
2023-05-15T08:47:33.323Z,100108.47
2023-05-15T08:50:07.925Z,100128.03
2023-05-15T08:52:36.736Z,100132.13
2023-05-15T08:55:06.142Z,100134.06
2023-05-15T08:57:34.743Z,100141.22
2023-05-15T09:00:09.406Z,100138.81
2023-05-15T09:02:38.745Z,100149.75
2023-05-15T09:05:09.955Z,100161.94
2023-05-15T09:07:42.331Z,100157.06
2023-05-15T09:10:11.619Z,100155.34
2023-05-15T09:12:46.446Z,100165.47
2023-05-15T09:15:22.332Z,100162.09
2023-05-15T09:17:51.098Z,100161.13
2023-05-15T09:20:30.524Z,100165.16
2023-05-15T09:23:00.123Z,100181.81
2023-05-15T09:25:43.069Z,100177.50
2023-05-15T09:28:29.744Z,100166.44
2023-05-15T09:31:03.962Z,100173.56
2023-05-15T09:33:40.512Z,100166.00
2023-05-15T09:36:09.972Z,100166.97
2023-05-15T09:38:43.392Z,100161.38
2023-05-15T09:41:12.250Z,100166.53
2023-05-15T09:43:41.373Z,100170.47
2023-05-15T09:46:13.313Z,100171.31
2023-05-15T09:48:42.041Z,100176.09
2023-05-15T09:51:18.595Z,100169.53
2023-05-15T09:53:53.498Z,100182.13
2023-05-15T09:56:22.712Z,100179.31
2023-05-15T09:59:01.403Z,100164.59
2023-05-15T10:01:30.398Z,100164.59
2023-05-15T10:04:06.850Z,100173.72
2023-05-15T10:06:43.460Z,100182.53
2023-05-15T10:09:13.036Z,100182.13
2023-05-15T10:11:45.448Z,100175.53
2023-05-15T10:14:14.542Z,100160.53
2023-05-15T10:16:43.423Z,100180.00
2023-05-15T10:19:13.428Z,100174.97
2023-05-15T10:21:42.733Z,100167.69
2023-05-15T10:24:11.676Z,100164.59
2023-05-15T10:26:42.272Z,100167.44
2023-05-15T10:29:12.962Z,100158.06
2023-05-15T10:31:42.336Z,100161.00
2023-05-15T10:34:11.398Z,100158.31
2023-05-15T10:36:41.179Z,100157.88
2023-05-15T10:39:09.837Z,100159.84
2023-05-15T10:41:39.493Z,100156.59
2023-05-15T10:44:08.017Z,100168.94
2023-05-15T10:46:37.254Z,100166.84
2023-05-15T10:49:05.855Z,100166.84
2023-05-15T10:51:36.969Z,100156.47
2023-05-15T10:54:06.107Z,100160.09
2023-05-15T10:56:35.125Z,100153.50
2023-05-15T10:59:09.255Z,100138.81
2023-05-15T11:01:39.622Z,100138.50
2023-05-15T11:04:18.704Z,100125.72
2023-05-15T11:06:49.587Z,100116.13
2023-05-15T11:09:27.220Z,100103.09
2023-05-15T11:11:57.977Z,100102.50
2023-05-15T11:14:44.909Z,100098.00
2023-05-15T11:17:17.796Z,100098.66
2023-05-15T11:19:52.015Z,100095.06
2023-05-15T11:22:31.674Z,100085.56
2023-05-15T11:25:09.312Z,100097.84
2023-05-15T11:27:45.165Z,100094.19
2023-05-15T11:30:25.294Z,100095.13
2023-05-15T11:33:09.112Z,100096.22
2023-05-15T11:35:44.195Z,100099.44
2023-05-15T11:38:17.810Z,100099.94
2023-05-15T11:40:57.026Z,100085.66
2023-05-15T11:43:30.774Z,100095.56
2023-05-15T11:46:04.575Z,100084.22
2023-05-15T11:48:48.054Z,100078.34
2023-05-15T11:51:23.453Z,100096.94
2023-05-15T11:53:56.176Z,100090.09
2023-05-15T11:56:28.689Z,100084.78
2023-05-15T11:58:59.309Z,100096.34
2023-05-15T12:01:29.793Z,100089.78
2023-05-15T12:03:58.960Z,100097.56
2023-05-15T12:06:27.705Z,100090.59
2023-05-15T12:08:56.757Z,100092.00
2023-05-15T12:11:25.500Z,100071.25
2023-05-15T12:13:55.281Z,100064.31
2023-05-15T12:16:27.565Z,100076.34
2023-05-15T12:18:59.501Z,100076.19
2023-05-15T12:21:28.330Z,100070.56
2023-05-15T12:26:28.980Z,100065.19
2023-05-15T12:28:57.799Z,100063.50
2023-05-15T12:31:26.276Z,100054.53
2023-05-15T12:33:55.838Z,100061.78
2023-05-15T12:36:24.624Z,100054.22
2023-05-15T12:38:53.636Z,100057.94
2023-05-15T12:41:22.516Z,100058.25
2023-05-15T12:43:52.206Z,100056.03
2023-05-15T12:46:29.723Z,100057.03
2023-05-15T12:49:02.153Z,100049.19
2023-05-15T12:51:30.815Z,100041.72
2023-05-15T12:53:59.906Z,100050.53
2023-05-15T12:56:31.113Z,100037.69
2023-05-15T12:59:00.186Z,100052.06
2023-05-15T13:01:30.116Z,100041.94
2023-05-15T13:03:59.673Z,100052.44
2023-05-15T13:06:38.360Z,100043.75
2023-05-15T13:09:14.800Z,100038.03
2023-05-15T13:11:46.786Z,100044.13
2023-05-15T13:14:18.286Z,100043.25
2023-05-15T13:16:47.239Z,100032.38
2023-05-15T13:19:17.853Z,100032.31
2023-05-15T13:21:46.836Z,100032.84
2023-05-15T13:24:15.893Z,100027.22
2023-05-15T13:26:44.588Z,100030.53
2023-05-15T13:29:13.986Z,100025.72
2023-05-15T13:31:42.984Z,100020.41
2023-05-15T13:34:12.108Z,100028.22
2023-05-15T13:36:41.215Z,100024.94
2023-05-15T13:39:10.696Z,100025.16
2023-05-15T13:41:39.447Z,100026.50
2023-05-15T13:44:08.775Z,100024.91
2023-05-15T13:46:37.876Z,100016.22
2023-05-15T13:49:07.803Z,100020.94
2023-05-15T13:51:36.575Z,100026.63
2023-05-15T13:54:05.783Z,100013.91
2023-05-15T13:56:34.444Z,100001.25
2023-05-15T13:59:03.505Z,100008.00
2023-05-15T14:01:32.224Z,100008.13
2023-05-15T14:04:01.403Z,99998.56
2023-05-15T14:06:33.582Z,100005.84
2023-05-15T14:09:02.632Z,100010.66
2023-05-15T14:11:31.345Z,99998.44
2023-05-15T14:14:00.402Z,99999.38
2023-05-15T14:16:29.091Z,99988.31
2023-05-15T14:18:58.659Z,99989.13
2023-05-15T14:21:27.775Z,99990.47
2023-05-15T14:23:56.962Z,99998.84
2023-05-15T14:26:26.199Z,99992.38
2023-05-15T14:28:55.776Z,99990.53
2023-05-15T14:31:24.721Z,99989.19
2023-05-15T14:33:53.766Z,99988.50
2023-05-15T14:36:22.622Z,99996.16
2023-05-15T14:38:51.783Z,100003.63
2023-05-15T14:41:22.153Z,100002.13
2023-05-15T14:43:51.374Z,100007.59
2023-05-15T14:46:20.234Z,100005.25
2023-05-15T14:48:49.313Z,100007.75
2023-05-15T14:51:19.857Z,99995.03
2023-05-15T14:53:49.143Z,100003.47
2023-05-15T14:56:17.838Z,100000.28
2023-05-15T14:58:47.164Z,100004.94
2023-05-15T15:01:16.441Z,99999.59
2023-05-15T15:03:45.746Z,100004.25
2023-05-15T15:06:14.801Z,100005.41
2023-05-15T15:08:44.030Z,100005.41
2023-05-15T15:11:12.852Z,99996.41
2023-05-15T15:13:41.908Z,99992.44
2023-05-15T15:16:10.789Z,99998.22
2023-05-15T15:18:40.071Z,99997.06
2023-05-15T15:21:09.502Z,100004.53
2023-05-15T15:23:38.561Z,100002.41
2023-05-15T15:26:07.369Z,100008.72
2023-05-15T15:28:36.452Z,100009.53
2023-05-15T15:31:05.420Z,100009.13
2023-05-15T15:33:34.432Z,100007.63
2023-05-15T15:36:02.822Z,100018.03
2023-05-15T15:38:31.733Z,100010.03
2023-05-15T15:41:00.265Z,100017.44
2023-05-15T15:43:29.205Z,100017.63
2023-05-15T15:45:57.752Z,100015.97
2023-05-15T15:48:26.544Z,100012.00
2023-05-15T15:50:55.104Z,100010.44
2023-05-15T15:53:24.044Z,100015.09
2023-05-15T15:55:52.729Z,100011.91
2023-05-15T15:58:21.524Z,100002.56
2023-05-15T16:00:50.037Z,100005.88
2023-05-15T16:03:19.069Z,99999.75
2023-05-15T16:05:47.804Z,100012.22
2023-05-15T16:08:16.796Z,100001.34
2023-05-15T16:10:45.549Z,100001.66
2023-05-15T16:13:14.468Z,99995.81
2023-05-15T16:15:43.762Z,100001.03
2023-05-15T16:18:12.714Z,99996.03
2023-05-15T16:20:41.488Z,99995.06
2023-05-15T16:23:11.915Z,99996.78
2023-05-15T16:25:40.628Z,99991.81
2023-05-15T16:28:10.248Z,99990.50
2023-05-15T16:30:47.954Z,99982.81
2023-05-15T16:33:20.735Z,99975.31
2023-05-15T16:35:49.207Z,99981.31
2023-05-15T16:38:18.519Z,99968.78
2023-05-15T16:40:47.608Z,99971.66
2023-05-15T16:43:17.060Z,99965.81
2023-05-15T16:45:45.630Z,99974.63
2023-05-15T16:48:14.481Z,99970.06
2023-05-15T16:50:43.104Z,99975.19
2023-05-15T16:53:12.303Z,99965.16
2023-05-15T16:55:41.207Z,99964.47
2023-05-15T16:58:10.068Z,99959.31
2023-05-15T17:00:38.643Z,99971.63
2023-05-15T17:03:08.424Z,99960.97
2023-05-15T17:05:37.037Z,99961.78
2023-05-15T17:08:06.304Z,99962.31
2023-05-15T17:10:34.906Z,99945.97
2023-05-15T17:13:05.100Z,99953.00
2023-05-15T17:15:33.705Z,99961.38
2023-05-15T17:18:02.670Z,99954.88
2023-05-15T17:20:31.295Z,99963.53
2023-05-15T17:23:00.262Z,99961.41
2023-05-15T17:25:28.939Z,99943.72
2023-05-15T17:27:58.063Z,99940.91
2023-05-15T17:30:26.919Z,99941.06
2023-05-15T17:32:56.150Z,99941.88
2023-05-15T17:35:25.107Z,99938.25
2023-05-15T17:37:54.167Z,99930.38
2023-05-15T17:40:22.877Z,99943.88
2023-05-15T17:42:51.703Z,99943.22
2023-05-15T17:45:20.298Z,99945.34
2023-05-15T17:47:49.479Z,99947.84
2023-05-15T17:50:18.225Z,99946.66
2023-05-15T17:52:47.098Z,99952.66
2023-05-15T17:55:16.021Z,99950.00
2023-05-15T17:57:45.279Z,99951.13
2023-05-15T18:00:14.742Z,99946.28
2023-05-15T18:02:43.715Z,99948.28
2023-05-15T18:05:12.355Z,99951.25
2023-05-15T18:07:42.787Z,99954.53
2023-05-15T18:10:11.560Z,99965.06
2023-05-15T18:12:40.779Z,99969.88
2023-05-15T18:15:09.996Z,99966.88
2023-05-15T18:17:38.948Z,99959.16
2023-05-15T18:20:08.503Z,99951.50
2023-05-15T18:22:37.624Z,99953.47
2023-05-15T18:25:06.781Z,99953.78
2023-05-15T18:27:35.783Z,99959.28
2023-05-15T18:30:04.881Z,99957.44
2023-05-15T18:32:34.224Z,99955.94
2023-05-15T18:35:03.133Z,99951.41
2023-05-15T18:37:32.206Z,99948.75
2023-05-15T18:40:00.834Z,99953.09
2023-05-15T18:42:29.967Z,99941.25
2023-05-15T18:44:58.614Z,99956.06
2023-05-15T18:47:27.901Z,99946.28
2023-05-15T18:49:57.225Z,99950.75
2023-05-15T18:52:27.301Z,99947.41
2023-05-15T18:54:57.834Z,99950.22
2023-05-15T18:57:26.698Z,99949.53
2023-05-15T18:59:55.573Z,99957.53
2023-05-15T19:02:26.089Z,99963.72
2023-05-15T19:04:55.076Z,99961.22
2023-05-15T19:07:24.057Z,99964.84
2023-05-15T19:09:52.679Z,99975.38
2023-05-15T19:12:21.569Z,99977.22
2023-05-15T19:14:50.120Z,99972.03
2023-05-15T19:17:20.472Z,99980.69
2023-05-15T19:19:48.999Z,99981.72
2023-05-15T19:22:19.052Z,99981.03
2023-05-15T19:24:48.014Z,99992.38
2023-05-15T19:27:16.920Z,99992.53
2023-05-15T19:29:45.593Z,99988.03
2023-05-15T19:32:14.456Z,99993.34
2023-05-15T19:34:43.268Z,100001.34
2023-05-15T19:37:12.217Z,99995.34
2023-05-15T19:39:41.156Z,99993.50
2023-05-15T19:42:10.182Z,99999.69
2023-05-15T19:44:38.727Z,99995.34
2023-05-15T19:47:09.881Z,99998.84
2023-05-15T19:49:38.402Z,99999.69
2023-05-15T19:52:07.681Z,99998.00
2023-05-15T19:54:36.237Z,99994.50
2023-05-15T19:57:05.484Z,99997.47
2023-05-15T19:59:34.010Z,100004.31
2023-05-15T20:02:03.537Z,100006.16
2023-05-15T20:04:32.790Z,99997.16
2023-05-15T20:07:01.669Z,99998.28
2023-05-15T20:09:30.757Z,99997.94
2023-05-15T20:11:59.662Z,99997.31
2023-05-15T20:14:28.217Z,100003.78
2023-05-15T20:16:57.281Z,100009.03
2023-05-15T20:19:26.294Z,100006.22
2023-05-15T20:21:55.372Z,100009.72
2023-05-15T20:24:26.062Z,100001.09
2023-05-15T20:26:54.967Z,99997.47
2023-05-15T20:29:23.633Z,99998.72
2023-05-15T20:31:53.072Z,100001.22
2023-05-15T20:34:22.056Z,99995.56
2023-05-15T20:36:52.974Z,99998.09
2023-05-15T20:39:21.601Z,99997.25
2023-05-15T20:41:50.958Z,99993.59
2023-05-15T20:44:19.456Z,99998.09
2023-05-15T20:46:48.305Z,99994.59
2023-05-15T20:49:16.761Z,99998.91
2023-05-15T20:51:45.728Z,100002.59
2023-05-15T20:54:15.301Z,99986.59
2023-05-15T20:56:44.133Z,99989.13
2023-05-15T20:59:13.630Z,99993.06
2023-05-15T21:01:43.024Z,100000.75
2023-05-15T21:04:11.703Z,99999.78
2023-05-15T21:06:40.739Z,99995.44
2023-05-15T21:09:09.380Z,99995.03
2023-05-15T21:11:38.381Z,100003.56
2023-05-15T21:14:07.115Z,99992.38
2023-05-15T21:16:36.653Z,99990.72
2023-05-15T21:19:05.374Z,99993.06
2023-05-15T21:21:35.805Z,99979.38
2023-05-15T21:24:04.525Z,99985.06
2023-05-15T21:26:33.378Z,99978.91
2023-05-15T21:29:02.877Z,99978.91
2023-05-15T21:31:31.937Z,99984.22
2023-05-15T21:34:00.463Z,99969.25
2023-05-15T21:36:29.302Z,99977.94
2023-05-15T21:38:57.831Z,99969.94
2023-05-15T21:41:26.879Z,99969.06
2023-05-15T21:43:55.462Z,99966.41
2023-05-15T21:46:24.428Z,99962.22
2023-05-15T21:48:53.116Z,99964.75
2023-05-15T21:51:21.994Z,99962.22
2023-05-15T21:53:50.597Z,99964.59
2023-05-15T21:56:19.431Z,99967.25
2023-05-15T21:58:47.988Z,99970.91
2023-05-15T22:01:18.073Z,99949.50
2023-05-15T22:03:46.793Z,99963.06
2023-05-15T22:06:16.117Z,99962.22
2023-05-15T22:08:44.706Z,99958.59
2023-05-15T22:11:13.645Z,99955.91
2023-05-15T22:13:42.403Z,99962.91
2023-05-15T22:16:11.770Z,99960.25
2023-05-15T22:18:42.432Z,99957.56
2023-05-15T22:21:11.477Z,99955.91
2023-05-15T22:23:39.966Z,99957.56
2023-05-15T22:26:09.110Z,99962.91
2023-05-15T22:28:37.756Z,99961.06
2023-05-15T22:31:06.567Z,99951.41
2023-05-15T22:33:35.075Z,99949.59
2023-05-15T22:36:04.104Z,99959.41
2023-05-15T22:38:32.679Z,99950.59
2023-05-15T22:41:01.750Z,99949.59
2023-05-15T22:43:30.550Z,99941.25
2023-05-15T22:45:59.455Z,99949.59
2023-05-15T22:48:28.086Z,99954.91
2023-05-15T22:50:58.084Z,99952.25
2023-05-15T22:53:27.343Z,99953.25
2023-05-15T22:55:56.195Z,99957.72
2023-05-15T22:58:24.726Z,99951.56
2023-05-15T23:00:53.822Z,99940.09
2023-05-15T23:03:22.392Z,99944.59
2023-05-15T23:05:53.966Z,99945.41
2023-05-15T23:08:22.694Z,99935.56
2023-05-15T23:10:53.544Z,99935.91
2023-05-15T23:13:22.513Z,99928.19
2023-05-15T23:15:51.553Z,99938.25
2023-05-15T23:18:20.390Z,99935.56
2023-05-15T23:20:49.466Z,99939.25
2023-05-15T23:23:19.374Z,99940.09
2023-05-15T23:25:48.323Z,99937.41
2023-05-15T23:28:17.073Z,99943.56
2023-05-15T23:30:46.195Z,99934.59
2023-05-15T23:33:14.786Z,99928.59
2023-05-15T23:35:43.862Z,99926.75
2023-05-15T23:38:12.659Z,99924.91
2023-05-15T23:40:41.552Z,99921.44
2023-05-15T23:43:10.398Z,99916.94
2023-05-15T23:45:39.302Z,99912.75
2023-05-15T23:48:08.045Z,99914.25
2023-05-15T23:50:37.327Z,99921.44
2023-05-15T23:53:05.958Z,99908.25
2023-05-15T23:55:35.000Z,99908.94
2023-05-15T23:58:03.811Z,99903.59
